createdAt,value
2018-03-11T00:00:06.555Z,11.67
2018-03-11T00:01:16.649Z,11.68
2018-03-11T00:02:26.485Z,11.63
2018-03-11T00:03:36.594Z,11.66
2018-03-11T00:04:46.665Z,11.71
2018-03-11T00:05:56.497Z,11.75
2018-03-11T00:07:06.576Z,11.79
2018-03-11T00:08:16.633Z,11.78
2018-03-11T00:09:26.424Z,11.81
2018-03-11T00:10:36.239Z,11.78
2018-03-11T00:11:46.336Z,11.71
2018-03-11T00:12:56.188Z,11.81
2018-03-11T00:14:06.004Z,11.79
2018-03-11T00:15:15.810Z,11.67
2018-03-11T00:16:25.899Z,11.64
2018-03-11T00:17:35.964Z,11.67
2018-03-11T00:18:45.831Z,11.71
2018-03-11T00:19:55.644Z,11.7
2018-03-11T00:21:05.200Z,11.78
2018-03-11T00:22:15.320Z,11.76
2018-03-11T00:23:25.121Z,11.85
2018-03-11T00:24:35.247Z,11.71
2018-03-11T00:25:45.077Z,11.71
2018-03-11T00:26:54.619Z,11.81
2018-03-11T00:28:04.682Z,11.78
2018-03-11T00:29:14.789Z,11.79
2018-03-11T00:30:24.965Z,11.75
2018-03-11T00:31:34.770Z,11.81
2018-03-11T00:32:44.857Z,11.75
2018-03-11T00:33:54.928Z,11.73
2018-03-11T00:35:04.735Z,11.67
2018-03-11T00:36:14.588Z,11.67
2018-03-11T00:37:24.670Z,11.56
2018-03-11T00:38:34.229Z,11.57
2018-03-11T00:39:44.310Z,11.46
2018-03-11T00:40:53.845Z,11.34
2018-03-11T00:42:03.935Z,11.35
2018-03-11T00:43:13.587Z,11.38
2018-03-11T00:44:23.150Z,11.33
2018-03-11T00:45:33.231Z,11.24
2018-03-11T00:46:42.770Z,11.26
2018-03-11T00:47:52.907Z,11.28
2018-03-11T00:49:02.971Z,11.18
2018-03-11T00:50:12.775Z,11.18
2018-03-11T00:51:22.841Z,11.28
2018-03-11T00:52:32.913Z,11.27
2018-03-11T00:53:42.761Z,11.21
2018-03-11T00:54:52.409Z,11.34
2018-03-11T00:56:02.293Z,11.3
2018-03-11T00:57:12.087Z,11.38
2018-03-11T00:58:22.173Z,11.3
2018-03-11T00:59:32.243Z,11.38
2018-03-11T01:00:42.035Z,11.26
2018-03-11T01:01:52.103Z,11.24
2018-03-11T01:03:02.174Z,11.24
2018-03-11T01:04:11.980Z,11.16
2018-03-11T01:05:21.787Z,11.13
2018-03-11T01:06:31.588Z,11.12
2018-03-11T01:07:41.430Z,11.06
2018-03-11T01:08:51.502Z,11.03
2018-03-11T01:10:01.320Z,11.05
2018-03-11T01:11:11.439Z,10.98
2018-03-11T01:12:21.729Z,10.98
2018-03-11T01:13:31.005Z,11.02
2018-03-11T01:14:41.086Z,10.92
2018-03-11T01:15:50.892Z,11.02
2018-03-11T01:17:00.739Z,10.84
2018-03-11T01:18:10.792Z,10.85
2018-03-11T01:19:20.840Z,10.85
2018-03-11T01:20:30.930Z,10.87
2018-03-11T01:21:41.033Z,10.92
2018-03-11T01:22:51.138Z,10.95
2018-03-11T01:24:01.199Z,10.77
2018-03-11T01:25:10.999Z,10.84
2018-03-11T01:26:21.093Z,10.75
2018-03-11T01:27:30.926Z,10.7
2018-03-11T01:28:40.787Z,10.67
2018-03-11T01:29:50.326Z,10.57
2018-03-11T01:31:00.397Z,10.57
2018-03-11T01:32:10.207Z,10.52
2018-03-11T01:33:20.272Z,10.59
2018-03-11T01:34:29.807Z,10.57
2018-03-11T01:35:39.598Z,10.52
2018-03-11T01:36:49.417Z,10.61
2018-03-11T01:37:59.497Z,10.57
2018-03-11T01:39:09.579Z,10.42
2018-03-11T01:40:19.637Z,10.38
2018-03-11T01:41:29.706Z,10.36
2018-03-11T01:42:39.519Z,10.32
2018-03-11T01:43:49.315Z,10.33
2018-03-11T01:44:59.126Z,10.33
2018-03-11T01:46:08.995Z,10.36
2018-03-11T01:47:18.282Z,10.36
2018-03-11T01:48:28.076Z,10.38
2018-03-11T01:49:37.877Z,10.47
2018-03-11T01:50:47.955Z,10.36
2018-03-11T01:51:58.073Z,10.52
2018-03-11T01:53:07.860Z,10.44
2018-03-11T01:54:17.668Z,10.51
2018-03-11T01:55:27.743Z,10.44
2018-03-11T01:56:37.814Z,10.57
2018-03-11T01:57:47.924Z,10.54
2018-03-11T01:58:58.001Z,10.52
2018-03-11T02:00:07.840Z,10.52
2018-03-11T02:01:17.115Z,10.51
2018-03-11T02:02:26.915Z,10.47
2018-03-11T02:03:36.702Z,10.49
2018-03-11T02:04:46.757Z,10.47
2018-03-11T02:05:56.828Z,10.55
2018-03-11T02:07:06.901Z,10.59
2018-03-11T02:08:16.440Z,10.59
2018-03-11T02:09:26.229Z,10.63
2018-03-11T02:10:36.287Z,10.55
2018-03-11T02:11:46.096Z,10.66
2018-03-11T02:12:55.891Z,10.54
2018-03-11T02:14:05.951Z,10.58
2018-03-11T02:15:15.473Z,10.58
2018-03-11T02:16:25.526Z,10.55
2018-03-11T02:17:35.582Z,10.55
2018-03-11T02:18:45.403Z,10.55
2018-03-11T02:19:55.471Z,10.57
2018-03-11T02:21:05.531Z,10.58
2018-03-11T02:22:15.324Z,10.52
2018-03-11T02:23:25.119Z,10.44
2018-03-11T02:24:35.186Z,10.49
2018-03-11T02:25:45.245Z,10.49
2018-03-11T02:26:55.321Z,10.51
2018-03-11T02:28:05.372Z,10.52
2018-03-11T02:29:15.180Z,10.55
2018-03-11T02:30:25.236Z,10.63
2018-03-11T02:31:35.312Z,10.57
2018-03-11T02:32:45.391Z,10.54
2018-03-11T02:33:55.208Z,10.54
2018-03-11T02:35:04.754Z,10.47
2018-03-11T02:36:14.566Z,10.54
2018-03-11T02:37:24.700Z,10.54
2018-03-11T02:38:34.776Z,10.54
2018-03-11T02:39:44.588Z,10.46
2018-03-11T02:40:54.392Z,10.51
2018-03-11T02:42:04.189Z,10.41
2018-03-11T02:43:14.012Z,10.38
2018-03-11T02:44:24.141Z,10.42
2018-03-11T02:45:33.930Z,10.33
2018-03-11T02:46:43.740Z,10.35
2018-03-11T02:47:53.282Z,10.25
2018-03-11T02:49:03.338Z,10.33
2018-03-11T02:50:13.164Z,10.2
2018-03-11T02:51:22.974Z,10.25
2018-03-11T02:52:33.076Z,10.1
2018-03-11T02:53:43.135Z,10
2018-03-11T02:54:52.924Z,10.05
2018-03-11T02:56:02.788Z,9.92
2018-03-11T02:57:12.942Z,9.82
2018-03-11T02:58:22.952Z,9.85
2018-03-11T02:59:32.750Z,9.8
2018-03-11T03:00:42.283Z,9.8
2018-03-11T03:01:52.127Z,9.77
2018-03-11T03:03:02.194Z,9.62
2018-03-11T03:04:12.265Z,9.7
2018-03-11T03:05:22.069Z,9.7
2018-03-11T03:06:31.864Z,9.57
2018-03-11T03:07:41.976Z,9.59
2018-03-11T03:39:37.132Z,6.03
2018-03-11T03:40:47.184Z,5.84
2018-03-11T03:41:57.229Z,5.91
2018-03-11T03:43:06.776Z,5.96
2018-03-11T03:44:16.570Z,5.89
2018-03-11T03:45:26.119Z,6.07
2018-03-11T03:46:36.187Z,6.29
2018-03-11T03:47:45.992Z,6.39
2018-03-11T03:48:56.050Z,6.44
2018-03-11T03:50:05.845Z,6.6
2018-03-11T03:51:15.962Z,6.75
2018-03-11T03:52:25.498Z,6.8
2018-03-11T03:53:35.293Z,6.97
2018-03-11T03:54:44.813Z,7.11
2018-03-11T03:55:54.074Z,7.18
2018-03-11T03:57:04.133Z,7.22
2018-03-11T03:58:13.670Z,7.39
2018-03-11T03:59:23.474Z,7.47
2018-03-11T04:00:33.278Z,7.64
2018-03-11T04:01:42.549Z,7.82
2018-03-11T04:02:52.346Z,7.78
2018-03-11T04:04:02.417Z,7.86
2018-03-11T04:05:12.487Z,7.99
2018-03-11T04:06:22.288Z,8.07
2018-03-11T04:07:32.095Z,8.16
2018-03-11T04:08:42.154Z,8.22
2018-03-11T04:09:52.229Z,8.19
2018-03-11T04:11:02.022Z,8.32
2018-03-11T04:12:11.555Z,8.31
2018-03-11T04:13:21.622Z,8.46
2018-03-11T04:14:31.486Z,8.43
2018-03-11T04:15:41.566Z,8.44
2018-03-11T04:16:51.386Z,8.39
2018-03-11T04:18:01.447Z,8.44
2018-03-11T04:19:10.994Z,8.53
2018-03-11T04:20:21.061Z,8.4
2018-03-11T04:21:30.584Z,8.61
2018-03-11T04:22:40.125Z,8.52
2018-03-11T04:23:49.396Z,8.58
2018-03-11T04:24:59.457Z,8.49
2018-03-11T04:26:09.315Z,8.61
2018-03-11T04:27:19.390Z,8.54
2018-03-11T04:28:28.934Z,8.54
2018-03-11T04:29:38.998Z,8.52
2018-03-11T04:30:48.535Z,8.44
2018-03-11T04:31:58.342Z,8.47
2018-03-11T04:33:07.875Z,8.46
2018-03-11T04:34:17.676Z,8.47
2018-03-11T04:35:27.467Z,8.5
2018-03-11T04:36:37.528Z,8.5
2018-03-11T04:37:47.113Z,8.49
2018-03-11T04:38:56.921Z,8.49
2018-03-11T04:40:06.720Z,8.5
2018-03-11T04:41:16.804Z,8.47
2018-03-11T04:42:26.596Z,8.46
2018-03-11T04:43:36.651Z,8.47
2018-03-11T04:44:46.441Z,8.49
2018-03-11T04:45:56.506Z,8.47
2018-03-11T04:47:06.573Z,8.47
2018-03-11T04:48:16.627Z,8.44
2018-03-11T04:49:26.744Z,8.46
2018-03-11T04:50:36.301Z,8.44
2018-03-11T04:51:46.349Z,8.46
2018-03-11T04:52:55.893Z,8.58
2018-03-11T04:54:05.975Z,8.49
2018-03-11T04:55:16.023Z,8.43
2018-03-11T04:56:26.093Z,8.49
2018-03-11T04:57:35.894Z,8.36
2018-03-11T04:58:45.939Z,8.28
2018-03-11T04:59:55.733Z,8.31
2018-03-11T05:01:05.851Z,8.32
2018-03-11T05:02:15.906Z,8.17
2018-03-11T05:03:25.450Z,8.17
2018-03-11T05:04:35.494Z,8.22
2018-03-11T05:05:45.564Z,8.17
2018-03-11T05:06:55.624Z,8.16
2018-03-11T05:08:05.684Z,8.25
2018-03-11T05:09:15.745Z,8.11
2018-03-11T05:10:25.893Z,8.1
2018-03-11T05:11:35.678Z,8.06
2018-03-11T05:12:45.477Z,8.17
2018-03-11T05:13:55.265Z,8.07
2018-03-11T05:15:05.334Z,8.14
2018-03-11T05:16:15.390Z,8.01
2018-03-11T05:17:25.444Z,8.07
2018-03-11T05:18:35.023Z,8.06
2018-03-11T05:19:44.836Z,8.01
2018-03-11T05:20:54.692Z,8.03
2018-03-11T05:22:04.774Z,8.07
2018-03-11T05:23:14.822Z,8.06
2018-03-11T05:24:24.954Z,8.11
2018-03-11T05:25:35.024Z,8.09
2018-03-11T05:26:44.839Z,8.16
2018-03-11T05:27:54.642Z,8.21
2018-03-11T05:29:04.760Z,8.24
2018-03-11T05:30:14.565Z,8.14
2018-03-11T05:31:24.634Z,8.14
2018-03-11T05:32:34.682Z,8.24
2018-03-11T05:33:44.218Z,8.25
2018-03-11T05:34:54.291Z,8.19
2018-03-11T05:36:04.344Z,8.16
2018-03-11T05:37:14.128Z,8.21
2018-03-11T05:38:24.244Z,8.22
2018-03-11T05:39:34.031Z,8.25
2018-03-11T05:40:44.152Z,8.29
2018-03-11T05:41:54.210Z,8.34
2018-03-11T05:43:04.260Z,8.42
2018-03-11T05:44:13.779Z,8.46
2018-03-11T05:45:23.857Z,8.46
2018-03-11T05:46:33.906Z,8.49
2018-03-11T05:47:43.963Z,8.49
2018-03-11T05:48:53.740Z,8.44
2018-03-11T05:50:03.588Z,8.58
2018-03-11T05:51:13.673Z,8.49
2018-03-11T05:52:23.716Z,8.57
2018-03-11T05:53:33.572Z,8.64
2018-03-11T05:54:43.649Z,8.65
2018-03-11T05:55:53.751Z,8.67
2018-03-11T05:57:03.556Z,8.65
2018-03-11T05:58:13.344Z,8.67
2018-03-11T05:59:23.545Z,8.74
2018-03-11T06:00:33.689Z,8.8
2018-03-11T06:01:43.483Z,8.83
2018-03-11T06:02:53.281Z,8.95
2018-03-11T06:04:03.348Z,8.94
2018-03-11T06:05:13.151Z,9.09
2018-03-11T06:06:22.678Z,9.11
2018-03-11T06:07:32.789Z,9.11
2018-03-11T06:08:42.579Z,9.2
2018-03-11T06:09:52.648Z,9.23
2018-03-11T06:11:02.749Z,9.19
2018-03-11T06:12:12.277Z,9.19
2018-03-11T06:13:22.102Z,9.14
2018-03-11T06:14:32.150Z,9.09
2018-03-11T06:15:41.948Z,9.12
2018-03-11T06:16:52.063Z,9.17
2018-03-11T06:18:02.139Z,9.19
2018-03-11T06:19:11.995Z,9.24
2018-03-11T06:20:21.272Z,9.24
2018-03-11T06:21:31.338Z,9.29
2018-03-11T06:22:41.400Z,9.41
2018-03-11T06:23:50.968Z,9.41
2018-03-11T06:25:00.762Z,9.45
2018-03-11T06:26:10.826Z,9.47
2018-03-11T06:27:20.928Z,9.47
2018-03-11T06:28:30.472Z,9.5
2018-03-11T06:29:40.528Z,9.5
2018-03-11T06:30:50.330Z,9.53
2018-03-11T06:31:59.871Z,9.57
2018-03-11T06:33:09.939Z,9.55
2018-03-11T06:34:19.992Z,9.64
2018-03-11T06:35:30.057Z,9.7
2018-03-11T06:36:40.097Z,9.57
2018-03-11T06:37:49.626Z,9.72
2018-03-11T06:38:59.796Z,9.81
2018-03-11T06:40:09.623Z,9.82
2018-03-11T06:41:19.677Z,9.89
2018-03-11T06:42:29.216Z,9.85
2018-03-11T06:43:39.014Z,9.96
2018-03-11T06:44:48.824Z,10.02
2018-03-11T06:45:58.364Z,10.05
2018-03-11T06:47:08.418Z,10.11
2018-03-11T06:48:18.499Z,10.14
2018-03-11T06:49:28.551Z,10.21
2018-03-11T06:50:38.096Z,10.23
2018-03-11T06:51:48.168Z,10.21
2018-03-11T06:52:58.248Z,10.39
2018-03-11T06:54:08.041Z,10.44
2018-03-11T06:55:17.850Z,10.39
2018-03-11T06:56:27.406Z,10.55
2018-03-11T06:57:36.932Z,10.63
2018-03-11T06:58:46.484Z,10.63
2018-03-11T06:59:56.277Z,10.61
2018-03-11T07:01:06.074Z,10.66
2018-03-11T07:02:16.183Z,10.69
2018-03-11T07:03:25.991Z,10.63
2018-03-11T07:04:35.536Z,10.8
2018-03-11T07:05:45.341Z,10.88
2018-03-11T07:06:54.907Z,10.79
2018-03-11T07:08:05.069Z,10.95
2018-03-11T07:09:15.147Z,10.84
2018-03-11T07:10:25.247Z,10.91
2018-03-11T07:11:35.325Z,11
2018-03-11T07:12:45.408Z,11.03
2018-03-11T07:13:55.522Z,11
2018-03-11T07:15:05.333Z,11.2
2018-03-11T07:16:14.906Z,11.24
2018-03-11T07:17:25.080Z,11.24
2018-03-11T07:18:34.871Z,11.3
2018-03-11T07:19:44.393Z,11.28
2018-03-11T07:20:54.458Z,11.41
2018-03-11T07:22:04.520Z,11.41
2018-03-11T07:23:14.100Z,11.49
2018-03-11T07:24:23.908Z,11.64
2018-03-11T07:25:34.080Z,11.66
2018-03-11T07:26:43.872Z,11.68
2018-03-11T07:27:53.669Z,11.79
2018-03-11T07:29:03.746Z,11.88
2018-03-11T07:30:13.294Z,11.94
2018-03-11T07:31:23.180Z,11.94
2018-03-11T07:32:32.976Z,12.04
2018-03-11T07:33:42.776Z,12.13
2018-03-11T07:34:52.831Z,12.15
2018-03-11T07:36:02.693Z,12.13
2018-03-11T07:37:12.439Z,12.26
2018-03-11T07:38:21.997Z,12.31
2018-03-11T07:39:31.822Z,12.33
2018-03-11T07:40:41.349Z,12.48
2018-03-11T07:41:51.427Z,12.55
2018-03-11T07:43:01.506Z,12.51
2018-03-11T07:44:11.587Z,12.62
2018-03-11T07:45:21.398Z,12.58
2018-03-11T07:46:31.476Z,12.73
2018-03-11T07:47:41.519Z,12.81
2018-03-11T07:48:51.659Z,12.99
2018-03-11T07:50:01.713Z,13.09
2018-03-11T07:51:11.824Z,13.11
2018-03-11T07:52:21.632Z,13.2
2018-03-11T07:53:31.702Z,13.27
2018-03-11T07:54:41.876Z,13.36
2018-03-11T07:55:51.967Z,13.36
2018-03-11T07:57:01.780Z,13.51
2018-03-11T07:58:11.323Z,13.54
2018-03-11T07:59:21.110Z,13.54
2018-03-11T08:00:31.183Z,13.68
2018-03-11T08:01:40.714Z,13.95
2018-03-11T08:02:50.771Z,13.99
2018-03-11T08:04:00.590Z,14.08
2018-03-11T08:05:10.658Z,14.13
2018-03-11T08:06:20.439Z,14.24
2018-03-11T08:07:30.514Z,14.3
2018-03-11T08:08:40.591Z,14.39
2018-03-11T08:09:50.668Z,14.49
2018-03-11T08:11:00.481Z,14.51
2018-03-11T08:12:10.567Z,14.57
2018-03-11T08:13:20.635Z,14.69
2018-03-11T08:14:30.514Z,14.77
2018-03-11T08:15:40.756Z,14.8
2018-03-11T08:16:50.591Z,14.87
2018-03-11T08:18:00.130Z,14.95
2018-03-11T08:19:09.690Z,15.04
2018-03-11T08:20:19.620Z,15.12
2018-03-11T08:21:29.751Z,15.27
2018-03-11T08:22:39.037Z,15.27
2018-03-11T08:23:48.849Z,15.43
2018-03-11T08:24:58.940Z,15.51
2018-03-11T08:26:09.031Z,15.58
2018-03-11T08:27:19.102Z,15.58
2018-03-11T08:28:29.204Z,15.68
2018-03-11T08:29:39.280Z,15.77
2018-03-11T08:30:49.109Z,15.73
2018-03-11T08:31:58.935Z,15.88
2018-03-11T08:33:08.772Z,15.83
2018-03-11T08:34:18.838Z,15.84
2018-03-11T08:35:28.929Z,16.04
2018-03-11T08:36:38.482Z,15.98
2018-03-11T08:37:48.563Z,15.93
2018-03-11T08:38:58.380Z,15.98
2018-03-11T08:40:08.447Z,15.92
2018-03-11T08:41:18.510Z,15.77
2018-03-11T08:42:28.329Z,15.74
2018-03-11T08:43:38.208Z,15.81
2018-03-11T08:44:48.302Z,15.81
2018-03-11T08:45:58.374Z,15.86
2018-03-11T08:47:08.472Z,15.93
2018-03-11T08:48:18.286Z,15.96
2018-03-11T08:49:28.456Z,16
2018-03-11T08:50:38.034Z,16.16
2018-03-11T08:51:48.135Z,16.25
2018-03-11T08:52:58.322Z,16.27
2018-03-11T08:54:08.189Z,16.4
2018-03-11T08:55:17.993Z,16.47
2018-03-11T08:56:28.071Z,16.62
2018-03-11T08:57:37.887Z,16.72
2018-03-11T08:58:47.980Z,16.9
2018-03-11T08:59:57.839Z,16.94
2018-03-11T09:01:07.400Z,17.02
2018-03-11T09:02:17.214Z,17.06
2018-03-11T09:03:27.035Z,17.24
2018-03-11T09:04:37.134Z,17.32
2018-03-11T09:05:46.956Z,17.32
2018-03-11T09:06:57.123Z,17.5
2018-03-11T09:08:06.961Z,17.63
2018-03-11T09:09:17.049Z,17.65
2018-03-11T09:10:27.220Z,17.79
2018-03-11T09:11:37.597Z,17.76
2018-03-11T09:12:47.457Z,17.74
2018-03-11T09:13:57.536Z,17.88
2018-03-11T09:15:07.361Z,17.86
2018-03-11T09:16:17.451Z,18.01
2018-03-11T09:17:27.269Z,17.99
2018-03-11T09:18:37.094Z,18.02
2018-03-11T09:19:46.902Z,17.98
2018-03-11T09:20:56.715Z,17.9
2018-03-11T09:22:06.788Z,17.79
2018-03-11T09:23:16.603Z,17.5
2018-03-11T09:24:26.414Z,17.46
2018-03-11T09:25:36.213Z,17.52
2018-03-11T09:26:46.346Z,17.66
2018-03-11T09:27:56.461Z,17.73
2018-03-11T09:29:05.991Z,17.69
2018-03-11T09:30:15.808Z,17.54
2018-03-11T09:31:25.634Z,17.5
2018-03-11T09:32:35.734Z,17.52
2018-03-11T09:33:45.576Z,17.35
2018-03-11T09:34:55.814Z,17.18
2018-03-11T09:36:05.728Z,17.02
2018-03-11T09:37:15.844Z,16.99
2018-03-11T09:38:25.700Z,17.13
2018-03-11T09:39:35.017Z,17.36
2018-03-11T09:40:44.828Z,17.28
2018-03-11T09:41:54.991Z,17.22
2018-03-11T09:43:04.817Z,17.09
2018-03-11T09:44:14.912Z,17.22
2018-03-11T09:45:24.996Z,17.45
2018-03-11T09:46:35.108Z,17.49
2018-03-11T09:47:45.266Z,17.32
2018-03-11T09:48:55.372Z,17.24
2018-03-11T09:50:05.472Z,17.18
2018-03-11T09:51:15.312Z,17.2
2018-03-11T09:52:25.413Z,17.18
2018-03-11T09:53:35.314Z,17.46
2018-03-11T09:54:45.152Z,17.43
2018-03-11T09:55:55.417Z,17.31
2018-03-11T09:57:05.543Z,17.21
2018-03-11T09:58:15.636Z,17.25
2018-03-11T09:59:25.250Z,17.06
2018-03-11T10:00:34.843Z,17.02
2018-03-11T10:01:44.939Z,17
2018-03-11T10:02:55.042Z,17.12
2018-03-11T10:04:04.891Z,17.09
2018-03-11T10:05:14.749Z,17.21
2018-03-11T10:06:24.589Z,17.21
2018-03-11T10:07:34.714Z,17.39
2018-03-11T10:08:44.303Z,17.39
2018-03-11T10:09:54.141Z,17.45
2018-03-11T10:11:04.274Z,17.55
2018-03-11T10:12:14.362Z,17.46
2018-03-11T10:13:24.438Z,17.45
2018-03-11T10:14:34.620Z,17.39
2018-03-11T10:15:44.438Z,17.43
2018-03-11T10:16:54.337Z,17.46
2018-03-11T10:18:04.166Z,17.35
2018-03-11T10:19:13.973Z,17.35
2018-03-11T10:20:23.540Z,17.3
2018-03-11T10:21:33.618Z,17.43
2018-03-11T10:22:43.698Z,17.5
2018-03-11T10:23:53.505Z,17.57
2018-03-11T10:25:03.316Z,17.73
2018-03-11T10:26:12.864Z,17.87
2018-03-11T10:27:22.936Z,17.88
2018-03-11T10:28:33.093Z,17.94
2018-03-11T10:29:42.894Z,18.02
2018-03-11T10:30:52.971Z,18.11
2018-03-11T10:32:02.797Z,18.32
2018-03-11T10:33:12.360Z,18.44
2018-03-11T10:34:21.664Z,18.78
2018-03-11T10:35:31.755Z,18.93
2018-03-11T10:36:41.364Z,18.79
2018-03-11T10:37:50.962Z,18.72
2018-03-11T10:39:00.806Z,18.78
2018-03-11T10:40:10.681Z,18.59
2018-03-11T10:41:20.792Z,18.56
2018-03-11T10:42:30.074Z,18.56
2018-03-11T10:43:39.883Z,18.44
2018-03-11T10:44:49.439Z,18.29
2018-03-11T10:45:59.030Z,18.24
2018-03-11T10:47:09.106Z,18.17
2018-03-11T10:48:18.929Z,18.17
2018-03-11T10:49:29.003Z,18.26
2018-03-11T10:50:38.897Z,18.47
2018-03-11T10:51:49.091Z,18.51
2018-03-11T10:52:59.183Z,18.47
2018-03-11T10:54:09.235Z,18.53
2018-03-11T10:55:19.308Z,18.74
2018-03-11T10:56:28.934Z,19.02
2018-03-11T10:57:38.537Z,19.09
2018-03-11T10:58:48.395Z,19.23
2018-03-11T10:59:58.256Z,19.09
2018-03-11T11:01:08.355Z,19.1
2018-03-11T11:02:18.249Z,19.31
2018-03-11T11:03:28.180Z,19.5
2018-03-11T11:04:37.726Z,19.55
2018-03-11T11:05:47.527Z,19.52
2018-03-11T11:06:57.611Z,19.49
2018-03-11T11:08:07.707Z,19.65
2018-03-11T11:09:17.002Z,19.72
2018-03-11T11:10:27.087Z,19.67
2018-03-11T11:11:36.902Z,19.63
2018-03-11T11:12:46.182Z,19.65
2018-03-11T11:13:56.261Z,19.97
2018-03-11T11:15:06.152Z,20.05
2018-03-11T11:16:16.245Z,20.37
2018-03-11T11:17:26.347Z,20.54
2018-03-11T11:18:36.466Z,20.91
2018-03-11T11:19:46.573Z,21.15
2018-03-11T11:20:56.683Z,21.12
2018-03-11T11:22:06.241Z,21.08
2018-03-11T11:23:16.329Z,21.01
2018-03-11T11:24:26.418Z,20.94
2018-03-11T11:25:36.581Z,20.68
2018-03-11T11:26:46.489Z,20.38
2018-03-11T11:27:56.557Z,20.25
2018-03-11T11:29:06.388Z,20.12
2018-03-11T11:30:16.219Z,20.08
2018-03-11T11:31:26.030Z,20.01
2018-03-11T11:32:35.850Z,19.92
2018-03-11T11:33:45.935Z,19.97
2018-03-11T11:34:55.746Z,19.97
2018-03-11T11:36:05.818Z,19.98
2018-03-11T11:37:15.899Z,20.08
2018-03-11T11:38:25.809Z,20.1
2018-03-11T11:39:35.632Z,20.08
2018-03-11T11:40:45.724Z,20.1
2018-03-11T11:41:55.804Z,20.08
2018-03-11T11:43:05.887Z,20.08
2018-03-11T11:44:16.065Z,20.22
2018-03-11T11:45:26.153Z,20.16
2018-03-11T11:46:35.977Z,20.1
2018-03-11T11:47:45.788Z,19.93
2018-03-11T11:48:55.738Z,20.05
2018-03-11T11:50:05.874Z,20.23
2018-03-11T11:51:15.940Z,20.37
2018-03-11T11:52:25.539Z,20.42
2018-03-11T11:53:35.370Z,20.54
2018-03-11T11:54:45.166Z,20.64
2018-03-11T11:55:54.727Z,20.85
2018-03-11T11:57:04.536Z,20.81
2018-03-11T11:58:14.428Z,20.81
2018-03-11T11:59:24.505Z,20.82
2018-03-11T12:00:34.580Z,20.88
2018-03-11T12:01:44.655Z,20.94
2018-03-11T12:02:54.738Z,21.19
2018-03-11T12:04:04.794Z,21.19
2018-03-11T12:05:14.874Z,21.08
2018-03-11T12:06:25.025Z,21.08
2018-03-11T12:07:35.134Z,20.96
2018-03-11T12:08:45.210Z,20.97
2018-03-11T12:09:55.292Z,20.9
2018-03-11T12:11:05.392Z,20.88
2018-03-11T12:12:15.566Z,20.97
2018-03-11T12:13:25.669Z,20.96
2018-03-11T12:14:35.231Z,21
2018-03-11T12:15:45.038Z,20.94
2018-03-11T12:16:55.111Z,20.96
2018-03-11T12:18:04.924Z,20.97
2018-03-11T12:19:14.470Z,20.93
2018-03-11T12:20:24.289Z,20.97
2018-03-11T12:21:34.113Z,20.88
2018-03-11T12:22:44.235Z,20.86
2018-03-11T12:23:54.312Z,20.86
2018-03-11T12:25:03.930Z,20.82
2018-03-11T12:26:14.008Z,20.76
2018-03-11T12:27:23.846Z,20.81
2018-03-11T12:28:33.659Z,20.71
2018-03-11T12:29:43.229Z,20.85
2018-03-11T12:30:53.374Z,20.82
2018-03-11T12:32:03.186Z,20.85
2018-03-11T12:33:13.285Z,20.93
2018-03-11T12:34:23.448Z,21.12
2018-03-11T12:35:33.843Z,21.09
2018-03-11T12:36:43.967Z,21.06
2018-03-11T12:37:54.077Z,20.9
2018-03-11T12:39:03.643Z,20.97
2018-03-11T12:40:13.795Z,20.79
2018-03-11T12:41:23.651Z,20.81
2018-03-11T12:42:33.759Z,20.67
2018-03-11T12:43:43.848Z,20.71
2018-03-11T12:44:53.955Z,20.68
2018-03-11T12:46:04.094Z,21.22
2018-03-11T12:47:14.289Z,21.25
2018-03-11T12:48:24.382Z,21.58
2018-03-11T12:49:34.471Z,21.61
2018-03-11T12:50:44.555Z,21.58
2018-03-11T12:51:54.101Z,21.52
2018-03-11T12:53:04.192Z,21.38
2018-03-11T12:54:14.285Z,21.4
2018-03-11T12:55:24.103Z,21.18
2018-03-11T12:56:33.905Z,21.18
2018-03-11T12:57:43.978Z,21.18
2018-03-11T12:58:54.077Z,21.16
2018-03-11T13:00:03.885Z,20.93
2018-03-11T13:01:14.003Z,20.86
2018-03-11T13:02:24.102Z,20.79
2018-03-11T13:03:33.702Z,20.71
2018-03-11T13:04:43.546Z,20.68
2018-03-11T13:05:53.107Z,20.68
2018-03-11T13:07:03.200Z,20.6
2018-03-11T13:08:13.302Z,20.51
2018-03-11T13:09:23.427Z,20.42
2018-03-11T13:10:33.034Z,20.41
2018-03-11T13:11:43.162Z,20.26
2018-03-11T13:12:53.012Z,20.22
2018-03-11T13:14:02.829Z,20.08
2018-03-11T13:15:12.982Z,20.04
2018-03-11T13:16:22.836Z,20.01
2018-03-11T13:17:32.149Z,19.86
2018-03-11T13:18:42.230Z,19.86
2018-03-11T13:19:51.788Z,19.83
2018-03-11T13:21:01.352Z,19.8
2018-03-11T13:22:10.912Z,19.67
2018-03-11T13:23:20.764Z,19.67
2018-03-11T13:24:30.844Z,19.64
2018-03-11T13:25:40.993Z,19.63
2018-03-11T13:26:51.304Z,19.61
2018-03-11T13:28:01.409Z,19.79
2018-03-11T13:29:11.495Z,19.87
2018-03-11T13:30:21.590Z,19.83
2018-03-11T13:31:31.396Z,19.97
2018-03-11T13:32:41.217Z,19.95
2018-03-11T13:33:51.070Z,20
2018-03-11T13:35:01.186Z,20.11
2018-03-11T13:36:11.009Z,20.11
2018-03-11T13:37:20.940Z,20.2
2018-03-11T13:38:30.882Z,20.41
2018-03-11T13:39:40.979Z,20.48
2018-03-11T13:40:51.074Z,20.37
2018-03-11T13:42:01.156Z,20.3
2018-03-11T13:43:10.796Z,20.38
2018-03-11T13:44:20.908Z,20.41
2018-03-11T13:45:30.532Z,20.38
2018-03-11T13:46:40.635Z,20.49
2018-03-11T13:47:50.755Z,20.42
2018-03-11T13:49:00.848Z,20.35
2018-03-11T13:50:10.950Z,20.37
2018-03-11T13:51:21.015Z,20.4
2018-03-11T13:52:31.139Z,20.46
2018-03-11T13:53:41.272Z,20.67
2018-03-11T13:54:51.139Z,20.72
2018-03-11T13:56:00.979Z,20.94
2018-03-11T13:57:11.133Z,21.18
2018-03-11T13:58:20.998Z,21.49
2018-03-11T13:59:30.865Z,21.45
2018-03-11T14:00:40.764Z,21.46
2018-03-11T14:01:50.896Z,21.61
2018-03-11T14:03:00.717Z,21.86
2018-03-11T14:04:10.854Z,22.2
2018-03-11T14:05:20.940Z,22.26
2018-03-11T14:06:30.009Z,22.45
2018-03-11T14:07:40.120Z,22.63
2018-03-11T14:08:49.937Z,22.55
2018-03-11T14:10:00.098Z,22.6
2018-03-11T14:11:10.194Z,22.7
2018-03-11T14:12:20.077Z,22.78
2018-03-11T14:13:30.205Z,22.82
2018-03-11T14:14:39.768Z,22.91
2018-03-11T14:15:49.899Z,22.86
2018-03-11T14:16:59.981Z,22.88
2018-03-11T14:18:09.525Z,22.69
2018-03-11T14:19:19.348Z,22.55
2018-03-11T14:20:29.172Z,22.55
2018-03-11T14:21:39.013Z,22.45
2018-03-11T14:22:48.832Z,22.46
2018-03-11T14:23:58.664Z,22.29
2018-03-11T14:25:08.817Z,22.3
2018-03-11T14:26:18.901Z,22.41
2018-03-11T14:27:29.017Z,22.42
2018-03-11T14:28:39.104Z,22.34
2018-03-11T14:29:48.926Z,22.38
2018-03-11T14:30:59.007Z,22.26
2018-03-11T14:32:08.846Z,22.12
2018-03-11T14:33:18.961Z,22.12
2018-03-11T14:34:28.786Z,22.12
2018-03-11T14:35:38.873Z,21.96
2018-03-11T14:36:48.974Z,21.92
2018-03-11T14:37:59.080Z,21.83
2018-03-11T14:39:09.224Z,21.56
2018-03-11T14:40:19.032Z,21.56
2018-03-11T14:41:29.144Z,21.38
2018-03-11T14:42:38.999Z,21.21
2018-03-11T14:43:49.087Z,21.13
2018-03-11T14:44:59.203Z,20.93
2018-03-11T14:46:09.306Z,20.81
2018-03-11T14:47:19.122Z,20.75
2018-03-11T14:48:29.184Z,20.6
2018-03-11T14:49:39.264Z,20.48
2018-03-11T14:50:49.126Z,20.49
2018-03-11T14:51:59.190Z,20.34
2018-03-11T14:53:09.276Z,20.27
2018-03-11T14:54:19.384Z,20.29
2018-03-11T14:55:29.461Z,20.18
2018-03-11T14:56:39.274Z,20.12
2018-03-11T14:57:49.093Z,20.12
2018-03-11T14:58:59.216Z,20.16
2018-03-11T15:00:09.296Z,20.15
2018-03-11T15:01:19.390Z,20.01
2018-03-11T15:02:29.220Z,20.05
2018-03-11T15:03:39.085Z,20.07
2018-03-11T15:04:48.920Z,20.05
2018-03-11T15:05:58.742Z,20.02
2018-03-11T15:07:08.290Z,20.08
2018-03-11T15:08:18.389Z,20.05
2018-03-11T15:09:28.482Z,20.1
2018-03-11T15:10:38.576Z,20.22
2018-03-11T15:11:48.400Z,20.19
2018-03-11T15:12:58.240Z,20.23
2018-03-11T15:14:08.100Z,20.22
2018-03-11T15:15:17.686Z,20.2
2018-03-11T15:16:27.846Z,20.19
2018-03-11T15:17:38.110Z,20.16
2018-03-11T15:18:47.933Z,20.18
2018-03-11T15:19:58.046Z,20.05
2018-03-11T15:21:08.144Z,20.11
2018-03-11T15:22:18.276Z,20.04
2018-03-11T15:23:28.077Z,20.07
2018-03-11T15:24:37.895Z,20.02
2018-03-11T15:25:47.757Z,20.11
2018-03-11T15:26:57.340Z,20.02
2018-03-11T15:28:07.266Z,20.15
2018-03-11T15:29:17.162Z,20.05
2018-03-11T15:30:27.248Z,20.12
2018-03-11T15:31:37.092Z,20.16
2018-03-11T15:32:47.175Z,20.11
2018-03-11T15:33:57.266Z,20.07
2018-03-11T15:35:07.366Z,20.04
2018-03-11T15:36:17.467Z,20.05
2018-03-11T15:37:27.550Z,20.05
2018-03-11T15:38:37.395Z,20.07
2018-03-11T15:39:47.212Z,20.15